Time;durP1;ratioP1;P1;durP2;ratioP2;P2;SDS_P1;SDS_P2;PMS_P1;PMS_P2;Temp;Humidity;BMP_temperature;BMP_pressure;BME280_temperature;BME280_humidity;BME280_pressure;Samples;Min_cycle;Max_cycle;Signal;HPM_P1;HPM_P2
2022/04/19 00:00:52;;;;;;;8.85;6.57;;;;;;;;;;5039400;28;20040;-63
2022/04/19 00:03:18;;;;;;;8.68;6.50;;;;;;;;;;5026710;28;20602;-63
2022/04/19 00:05:45;;;;;;;9.13;5.65;;;;;;;;;;5058235;28;20038;-63
2022/04/19 00:08:12;;;;;;;10.85;6.95;;;;;;;;;;5036739;28;20051;-62
2022/04/19 00:10:40;;;;;;;8.63;6.03;;;;;;;;;;5027410;28;20044;-62
2022/04/19 00:13:07;;;;;;;9.00;6.45;;;;;;;;;;5058995;28;20398;-63
2022/04/19 00:15:33;;;;;;;8.00;6.32;;;;;;;;;;5060624;28;20103;-62
2022/04/19 00:18:00;;;;;;;9.05;7.18;;;;;;;;;;5034842;28;20408;-63
2022/04/19 00:20:28;;;;;;;9.52;7.28;;;;;;;;;;5042300;28;20033;-62
2022/04/19 00:22:54;;;;;;;9.25;7.28;;;;;;;;;;5032034;28;20483;-62
2022/04/19 00:25:20;;;;;;;10.32;7.57;;;;;;;;;;5032590;28;20052;-63
2022/04/19 00:27:46;;;;;;;10.05;7.80;;;;;;;;;;5031321;28;20403;-62
2022/04/19 00:30:13;;;;;;;9.82;7.78;;;;;;;;;;5059106;28;20038;-62
2022/04/19 00:32:39;;;;;;;11.38;8.25;;;;;;;;;;5026308;28;20040;-62
2022/04/19 00:35:06;;;;;;;10.45;8.25;;;;;;;;;;5063739;28;20053;-62
2022/04/19 00:37:33;;;;;;;8.55;7.18;;;;;;;;;;5060744;28;20110;-62
2022/04/19 00:40:01;;;;;;;9.38;6.30;;;;;;;;;;5040835;28;20037;-63
2022/04/19 00:42:30;;;;;;;8.00;6.05;;;;;;;;;;5039503;28;20446;-63
2022/04/19 00:44:58;;;;;;;9.27;7.00;;;;;;;;;;5035843;28;20481;-63
2022/04/19 00:47:25;;;;;;;8.98;6.63;;;;;;;;;;5057829;28;20047;-62
2022/04/19 00:49:52;;;;;;;8.52;6.70;;;;;;;;;;5059096;28;20435;-63
2022/04/19 00:52:18;;;;;;;8.10;5.88;;;;;;;;;;5026541;28;20349;-62
2022/04/19 00:54:46;;;;;;;6.80;5.30;;;;;;;;;;5061559;28;20064;-63
2022/04/19 00:57:13;;;;;;;6.65;5.35;;;;;;;;;;5058027;28;20046;-63
2022/04/19 00:59:39;;;;;;;10.05;5.97;;;;;;;;;;5038580;28;20128;-63
2022/04/19 01:02:05;;;;;;;8.52;5.70;;;;;;;;;;5018225;28;20177;-63
2022/04/19 01:04:31;;;;;;;8.55;5.85;;;;;;;;;;5060990;28;20037;-63
2022/04/19 01:06:58;;;;;;;10.80;6.85;;;;;;;;;;5034633;28;20036;-63
2022/04/19 01:09:24;;;;;;;7.68;5.85;;;;;;;;;;5061077;28;20052;-63
2022/04/19 01:14:38;;;;;;;7.15;5.45;;;;;;;;;;5038205;28;20045;-63
2022/04/19 01:17:08;;;;;;;6.38;5.70;;;;;;;;;;5036884;28;20463;-63
2022/04/19 01:19:38;;;;;;;6.88;5.57;;;;;;;;;;5037050;28;20439;-63
2022/04/19 01:22:05;;;;;;;8.75;6.40;;;;;;;;;;5058886;28;20495;-63
2022/04/19 01:24:32;;;;;;;9.00;5.57;;;;;;;;;;5025744;28;20297;-62
2022/04/19 01:26:58;;;;;;;8.02;6.25;;;;;;;;;;5024413;28;20041;-63
2022/04/19 01:29:26;;;;;;;8.43;6.43;;;;;;;;;;5061814;28;20129;-62
2022/04/19 01:31:53;;;;;;;7.95;6.03;;;;;;;;;;5062088;28;20043;-63
2022/04/19 01:34:19;;;;;;;7.95;5.60;;;;;;;;;;5074503;28;20503;-62
2022/04/19 01:36:45;;;;;;;9.38;5.75;;;;;;;;;;5062052;28;20443;-62
2022/04/19 01:39:12;;;;;;;7.75;6.00;;;;;;;;;;5029789;28;20490;-60
2022/04/19 01:41:38;;;;;;;7.68;6.22;;;;;;;;;;5041896;28;20488;-63
2022/04/19 01:44:05;;;;;;;11.65;7.20;;;;;;;;;;5036338;28;20045;-62
2022/04/19 01:46:34;;;;;;;8.57;6.63;;;;;;;;;;5063148;28;20140;-61
2022/04/19 01:49:04;;;;;;;9.25;6.47;;;;;;;;;;5057781;28;20120;-63
2022/04/19 01:51:31;;;;;;;9.05;6.50;;;;;;;;;;5063582;28;20470;-62
2022/04/19 01:53:57;;;;;;;10.10;6.78;;;;;;;;;;5037467;28;20498;-63
2022/04/19 01:56:23;;;;;;;8.70;6.57;;;;;;;;;;5042960;28;20041;-62
2022/04/19 01:58:49;;;;;;;10.48;7.47;;;;;;;;;;5042033;28;20041;-62
2022/04/19 02:01:15;;;;;;;10.85;6.90;;;;;;;;;;5025808;28;20045;-63
2022/04/19 02:03:42;;;;;;;12.63;7.18;;;;;;;;;;5035368;28;20131;-62
2022/04/19 02:06:08;;;;;;;9.48;6.65;;;;;;;;;;5029096;28;20483;-64
2022/04/19 02:08:34;;;;;;;9.82;6.85;;;;;;;;;;5061956;28;20155;-63
2022/04/19 02:11:00;;;;;;;11.05;7.10;;;;;;;;;;5062179;28;20046;-65
2022/04/19 02:13:27;;;;;;;9.68;6.95;;;;;;;;;;5037788;28;20064;-63
2022/04/19 02:15:53;;;;;;;11.70;7.45;;;;;;;;;;5077349;28;20124;-63
2022/04/19 02:18:20;;;;;;;11.18;7.30;;;;;;;;;;5038788;28;20391;-63
2022/04/19 02:20:46;;;;;;;10.60;7.55;;;;;;;;;;5062711;28;20066;-62
2022/04/19 02:23:13;;;;;;;12.75;7.82;;;;;;;;;;5061399;28;20068;-63
2022/04/19 02:25:39;;;;;;;11.68;7.85;;;;;;;;;;5063048;28;20037;-63
2022/04/19 02:28:07;;;;;;;12.32;8.18;;;;;;;;;;5021114;28;20041;-63
2022/04/19 02:30:33;;;;;;;11.45;7.45;;;;;;;;;;5044162;28;20677;-62
2022/04/19 02:33:02;;;;;;;13.18;8.57;;;;;;;;;;5061888;28;20028;-63
2022/04/19 02:35:28;;;;;;;11.15;6.65;;;;;;;;;;5019702;28;20371;-62
2022/04/19 02:37:58;;;;;;;16.27;8.43;;;;;;;;;;5042784;28;20053;-62
2022/04/19 02:40:25;;;;;;;13.45;8.30;;;;;;;;;;5039364;28;20037;-63
2022/04/19 02:42:54;;;;;;;11.90;7.53;;;;;;;;;;5017308;28;20514;-63
2022/04/19 02:45:21;;;;;;;14.15;8.60;;;;;;;;;;5026708;28;20182;-63
2022/04/19 02:48:03;;;;;;;11.00;8.00;;;;;;;;;;5070627;28;20060;-62
2022/04/19 02:50:29;;;;;;;12.57;7.57;;;;;;;;;;5041778;28;20494;-63
2022/04/19 02:52:55;;;;;;;11.70;8.07;;;;;;;;;;5034071;28;20048;-63
2022/04/19 02:55:21;;;;;;;12.77;7.22;;;;;;;;;;5074657;28;20041;-62
2022/04/19 02:57:47;;;;;;;13.30;7.95;;;;;;;;;;5060585;28;20142;-62
2022/04/19 03:00:14;;;;;;;13.80;8.38;;;;;;;;;;5021778;28;20045;-62
2022/04/19 03:02:40;;;;;;;14.13;7.63;;;;;;;;;;5063004;28;20049;-64
2022/04/19 03:05:06;;;;;;;12.02;7.35;;;;;;;;;;5043586;28;20041;-62
2022/04/19 03:07:32;;;;;;;13.98;7.85;;;;;;;;;;5062313;28;20543;-63
2022/04/19 03:09:58;;;;;;;13.55;7.90;;;;;;;;;;5016156;28;20040;-62
2022/04/19 03:12:24;;;;;;;11.80;8.15;;;;;;;;;;5035369;28;20095;-62
2022/04/19 03:14:50;;;;;;;11.45;7.97;;;;;;;;;;5033778;28;20055;-62
2022/04/19 03:17:16;;;;;;;13.18;8.48;;;;;;;;;;5027562;28;20098;-62
2022/04/19 03:19:43;;;;;;;12.50;8.18;;;;;;;;;;5031928;28;20039;-62
2022/04/19 03:22:09;;;;;;;13.27;8.52;;;;;;;;;;5059148;28;20080;-62
2022/04/19 03:30:05;;;;;;;17.88;8.90;;;;;;;;;;5034988;28;20127;-62
2022/04/19 03:32:32;;;;;;;14.90;8.40;;;;;;;;;;5068429;28;20049;-62
2022/04/19 03:34:58;;;;;;;13.07;8.07;;;;;;;;;;5060710;28;20053;-64
2022/04/19 03:37:24;;;;;;;12.48;8.70;;;;;;;;;;5033658;28;20119;-63
2022/04/19 03:39:50;;;;;;;12.00;8.23;;;;;;;;;;5041786;28;20651;-62
2022/04/19 03:42:16;;;;;;;15.73;8.57;;;;;;;;;;5061431;28;20047;-61
2022/04/19 03:44:42;;;;;;;17.13;9.32;;;;;;;;;;5059017;28;20041;-62
2022/04/19 03:47:09;;;;;;;14.00;8.95;;;;;;;;;;5060276;28;20091;-62
2022/04/19 03:49:39;;;;;;;12.93;8.85;;;;;;;;;;5072230;28;20045;-62
2022/04/19 03:52:05;;;;;;;14.05;8.60;;;;;;;;;;5033772;28;20043;-62
2022/04/19 03:54:34;;;;;;;14.30;8.95;;;;;;;;;;5035881;28;20120;-62
2022/04/19 03:57:04;;;;;;;16.25;8.93;;;;;;;;;;5028475;28;20163;-63
2022/04/19 03:59:31;;;;;;;13.10;8.50;;;;;;;;;;5041493;28;20049;-62
2022/04/19 04:01:58;;;;;;;14.65;9.02;;;;;;;;;;5037674;28;20041;-63
2022/04/19 04:04:26;;;;;;;14.45;8.23;;;;;;;;;;5034874;28;20089;-62
2022/04/19 04:06:52;;;;;;;13.60;8.48;;;;;;;;;;5036487;28;20491;-61
2022/04/19 04:09:18;;;;;;;14.82;9.18;;;;;;;;;;5041412;28;20052;-63
2022/04/19 04:11:44;;;;;;;13.07;8.85;;;;;;;;;;5058814;28;20118;-61
2022/04/19 04:14:10;;;;;;;13.55;8.38;;;;;;;;;;5059039;28;20044;-62
2022/04/19 04:16:37;;;;;;;13.20;7.93;;;;;;;;;;5027126;28;20041;-63
2022/04/19 04:19:03;;;;;;;10.82;6.57;;;;;;;;;;5059318;28;20041;-62
2022/04/19 04:21:29;;;;;;;14.20;8.77;;;;;;;;;;5064572;28;20030;-62
2022/04/19 04:23:55;;;;;;;13.05;8.57;;;;;;;;;;5026349;28;20073;-62
2022/04/19 04:26:21;;;;;;;12.15;8.23;;;;;;;;;;5058534;28;22002;-62
2022/04/19 04:28:47;;;;;;;13.98;9.05;;;;;;;;;;5058336;28;20065;-63
2022/04/19 04:31:13;;;;;;;15.10;8.77;;;;;;;;;;5059340;28;20132;-62
2022/04/19 04:33:40;;;;;;;16.33;9.40;;;;;;;;;;5030118;28;20045;-62
2022/04/19 04:36:06;;;;;;;14.20;8.98;;;;;;;;;;5034797;28;20057;-63
2022/04/19 04:38:32;;;;;;;15.20;9.15;;;;;;;;;;5034359;28;20495;-62
2022/04/19 04:40:58;;;;;;;11.98;9.02;;;;;;;;;;5060608;28;20464;-62
2022/04/19 04:43:24;;;;;;;12.95;8.88;;;;;;;;;;5036420;28;20506;-63
2022/04/19 04:49:35;;;;;;;15.45;8.93;;;;;;;;;;5026412;28;20480;-62
2022/04/19 04:51:21;;;;;;;11.70;8.50;;;;;;;;;;5036482;28;20049;-63
2022/04/19 04:53:47;;;;;;;14.75;9.55;;;;;;;;;;5062140;28;20040;-64
2022/04/19 04:56:13;;;;;;;14.90;9.40;;;;;;;;;;5035386;28;20388;-63
2022/04/19 04:58:39;;;;;;;14.57;9.10;;;;;;;;;;5071400;28;20049;-63
2022/04/19 05:01:05;;;;;;;13.27;8.50;;;;;;;;;;5036389;28;20049;-64
2022/04/19 05:03:32;;;;;;;13.27;8.27;;;;;;;;;;5059482;28;20042;-63
2022/04/19 05:05:58;;;;;;;13.85;8.70;;;;;;;;;;5046169;28;20502;-61
2022/04/19 05:08:24;;;;;;;16.77;8.13;;;;;;;;;;5039872;28;20045;-61
2022/04/19 05:10:50;;;;;;;11.35;8.52;;;;;;;;;;5041546;28;20033;-60
2022/04/19 05:13:16;;;;;;;12.32;8.50;;;;;;;;;;5031244;28;20484;-64
2022/04/19 05:15:42;;;;;;;13.43;8.43;;;;;;;;;;5062544;28;20068;-63
2022/04/19 05:18:08;;;;;;;14.38;8.93;;;;;;;;;;5021292;28;20037;-63
2022/04/19 05:20:34;;;;;;;11.32;8.23;;;;;;;;;;5023549;28;20064;-62
2022/04/19 05:23:00;;;;;;;13.55;8.65;;;;;;;;;;5061995;28;20087;-63
2022/04/19 05:25:26;;;;;;;12.90;8.60;;;;;;;;;;5063795;28;20037;-63
2022/04/19 05:27:52;;;;;;;13.02;8.73;;;;;;;;;;5025234;28;20124;-63
2022/04/19 05:30:18;;;;;;;15.13;8.65;;;;;;;;;;5029735;28;20535;-62
2022/04/19 05:32:46;;;;;;;14.10;9.13;;;;;;;;;;5060613;28;20089;-63
2022/04/19 05:35:12;;;;;;;11.38;7.72;;;;;;;;;;5022234;28;20060;-64
2022/04/19 05:37:38;;;;;;;11.43;8.10;;;;;;;;;;5062554;28;20091;-63
2022/04/19 05:40:04;;;;;;;11.57;7.88;;;;;;;;;;5038862;28;20125;-63
2022/04/19 05:42:30;;;;;;;15.15;8.20;;;;;;;;;;5022269;28;20483;-62
2022/04/19 05:44:56;;;;;;;10.20;5.53;;;;;;;;;;5039847;28;20487;-65
2022/04/19 05:47:23;;;;;;;8.90;5.00;;;;;;;;;;5065042;28;20079;-62
2022/04/19 05:49:49;;;;;;;9.57;5.55;;;;;;;;;;5004616;28;20045;-63
2022/04/19 05:52:16;;;;;;;10.15;6.38;;;;;;;;;;5036030;28;20057;-63
2022/04/19 05:54:42;;;;;;;6.10;4.32;;;;;;;;;;5061583;28;20036;-62
2022/04/19 05:57:10;;;;;;;9.18;5.80;;;;;;;;;;5059739;28;20041;-63
2022/04/19 05:59:36;;;;;;;6.65;5.03;;;;;;;;;;5019587;28;20041;-62
2022/04/19 06:04:53;;;;;;;7.93;5.43;;;;;;;;;;5037908;28;20045;-63
2022/04/19 06:07:20;;;;;;;8.65;4.80;;;;;;;;;;5024792;28;20060;-62
2022/04/19 06:09:46;;;;;;;7.28;5.25;;;;;;;;;;5039901;28;20087;-63
2022/04/19 06:12:12;;;;;;;7.90;5.57;;;;;;;;;;5061075;28;20333;-63
2022/04/19 06:14:38;;;;;;;10.13;6.88;;;;;;;;;;5078334;28;20076;-62
2022/04/19 06:17:05;;;;;;;8.73;6.57;;;;;;;;;;5027425;28;20076;-64
2022/04/19 06:19:31;;;;;;;11.63;7.32;;;;;;;;;;5032978;28;20608;-63
2022/04/19 06:22:00;;;;;;;11.82;7.40;;;;;;;;;;5064328;28;20158;-63
2022/04/19 06:24:26;;;;;;;8.85;6.10;;;;;;;;;;5027611;28;20069;-63
2022/04/19 06:26:52;;;;;;;7.63;6.03;;;;;;;;;;5039799;28;20040;-63
2022/04/19 06:29:24;;;;;;;9.57;6.32;;;;;;;;;;5045920;28;20095;-63
2022/04/19 06:31:50;;;;;;;9.48;6.03;;;;;;;;;;5055070;28;20045;-62
2022/04/19 06:34:16;;;;;;;9.23;6.18;;;;;;;;;;5050983;28;20090;-64
2022/04/19 06:36:45;;;;;;;9.63;5.60;;;;;;;;;;5034702;28;20144;-62
2022/04/19 06:39:12;;;;;;;9.07;6.50;;;;;;;;;;5026194;28;20050;-63
2022/04/19 06:41:38;;;;;;;7.85;6.10;;;;;;;;;;5043573;28;20068;-63
2022/04/19 06:44:06;;;;;;;9.73;6.30;;;;;;;;;;5046455;28;20041;-62
2022/04/19 06:46:33;;;;;;;11.30;6.10;;;;;;;;;;5038744;28;20037;-63
2022/04/19 06:48:59;;;;;;;8.00;5.90;;;;;;;;;;5042373;28;20037;-62
2022/04/19 06:51:30;;;;;;;8.15;5.70;;;;;;;;;;5061291;28;20095;-63
2022/04/19 06:53:57;;;;;;;7.70;5.22;;;;;;;;;;5031644;28;20116;-62
2022/04/19 06:56:23;;;;;;;9.15;5.70;;;;;;;;;;5029218;28;20045;-63
2022/04/19 06:58:50;;;;;;;10.07;5.03;;;;;;;;;;5028962;28;20042;-63
2022/04/19 07:01:17;;;;;;;7.68;4.82;;;;;;;;;;5039246;28;20044;-64
2022/04/19 07:03:43;;;;;;;8.05;4.45;;;;;;;;;;5060186;28;20042;-63
2022/04/19 07:06:09;;;;;;;7.13;4.78;;;;;;;;;;5062551;28;20175;-62
2022/04/19 07:08:35;;;;;;;9.95;5.45;;;;;;;;;;5038455;28;20487;-63
2022/04/19 07:11:03;;;;;;;5.85;3.78;;;;;;;;;;5027802;28;20090;-62
2022/04/19 07:13:30;;;;;;;6.15;3.75;;;;;;;;;;5038725;28;20044;-62
2022/04/19 07:15:56;;;;;;;4.50;3.35;;;;;;;;;;5037814;28;20045;-63
2022/04/19 07:18:23;;;;;;;4.53;2.95;;;;;;;;;;5038171;28;20368;-64
2022/04/19 07:26:37;;;;;;;4.80;3.03;;;;;;;;;;5038818;28;20553;-62
2022/04/19 07:29:04;;;;;;;2.58;1.67;;;;;;;;;;5033263;28;20038;-63
2022/04/19 07:31:31;;;;;;;3.00;2.47;;;;;;;;;;5036099;28;20487;-63
2022/04/19 07:33:57;;;;;;;4.68;3.17;;;;;;;;;;5041288;28;20519;-64
2022/04/19 07:36:24;;;;;;;3.60;2.47;;;;;;;;;;5060517;28;20088;-62
2022/04/19 07:38:51;;;;;;;4.47;3.50;;;;;;;;;;5039887;28;20057;-63
2022/04/19 07:41:17;;;;;;;5.72;3.20;;;;;;;;;;5000353;28;20553;-64
2022/04/19 07:43:45;;;;;;;5.55;3.22;;;;;;;;;;5026782;28;20530;-63
2022/04/19 07:46:15;;;;;;;4.68;3.17;;;;;;;;;;5038265;28;20037;-63
2022/04/19 07:48:41;;;;;;;4.50;3.00;;;;;;;;;;5060514;28;20379;-63
2022/04/19 07:51:07;;;;;;;4.07;2.42;;;;;;;;;;5027055;28;20131;-64
2022/04/19 07:53:33;;;;;;;4.18;2.88;;;;;;;;;;5020509;28;20037;-63
2022/04/19 07:56:02;;;;;;;3.90;2.65;;;;;;;;;;5046296;28;20032;-63
2022/04/19 07:58:28;;;;;;;3.95;2.67;;;;;;;;;;5034553;28;20543;-64
2022/04/19 08:00:54;;;;;;;3.20;2.20;;;;;;;;;;5025058;28;20132;-63
2022/04/19 08:03:20;;;;;;;3.72;2.40;;;;;;;;;;5042195;28;20112;-63
2022/04/19 08:05:46;;;;;;;2.95;1.77;;;;;;;;;;5061179;28;20038;-63
2022/04/19 08:08:12;;;;;;;2.78;1.77;;;;;;;;;;5060953;28;20099;-63
2022/04/19 08:10:38;;;;;;;2.83;2.10;;;;;;;;;;5040049;28;20033;-63
2022/04/19 08:13:04;;;;;;;2.67;1.60;;;;;;;;;;5015206;28;20039;-64
2022/04/19 08:15:31;;;;;;;2.78;1.83;;;;;;;;;;4996056;28;20037;-63
2022/04/19 08:17:57;;;;;;;2.97;1.65;;;;;;;;;;5029228;28;20042;-63
2022/04/19 08:20:24;;;;;;;2.85;1.15;;;;;;;;;;5042918;28;20402;-62
2022/04/19 08:22:50;;;;;;;1.35;1.10;;;;;;;;;;5074739;28;20060;-63
2022/04/19 08:25:16;;;;;;;1.73;0.60;;;;;;;;;;5063890;28;20144;-63
2022/04/19 08:27:46;;;;;;;1.08;0.55;;;;;;;;;;5059789;28;20040;-62
2022/04/19 08:30:13;;;;;;;1.90;0.50;;;;;;;;;;5063321;28;20041;-62
2022/04/19 08:32:39;;;;;;;1.95;0.55;;;;;;;;;;5038432;28;20103;-63
2022/04/19 08:35:05;;;;;;;1.80;0.60;;;;;;;;;;5030941;28;20041;-63
2022/04/19 08:37:34;;;;;;;1.63;0.50;;;;;;;;;;5064040;28;20072;-63
2022/04/19 08:40:00;;;;;;;1.48;0.60;;;;;;;;;;5039455;28;20037;-64
2022/04/19 08:42:29;;;;;;;1.20;0.50;;;;;;;;;;5066410;28;20050;-62
2022/04/19 08:44:56;;;;;;;1.83;0.40;;;;;;;;;;5038809;28;20091;-63
2022/04/19 08:47:24;;;;;;;1.02;0.40;;;;;;;;;;5064560;28;20049;-63
2022/04/19 08:49:50;;;;;;;1.08;0.40;;;;;;;;;;5063830;28;20460;-62
2022/04/19 08:52:17;;;;;;;2.60;0.40;;;;;;;;;;5065316;28;20148;-64
2022/04/19 08:57:30;;;;;;;1.17;0.40;;;;;;;;;;5066709;28;20107;-64
2022/04/19 08:59:56;;;;;;;1.48;0.50;;;;;;;;;;5045428;28;20050;-63
2022/04/19 09:02:23;;;;;;;1.20;0.40;;;;;;;;;;5040305;28;20064;-64
2022/04/19 09:04:50;;;;;;;1.65;0.50;;;;;;;;;;5035809;28;20076;-63
2022/04/19 09:07:17;;;;;;;1.42;0.50;;;;;;;;;;5067149;28;20380;-62
2022/04/19 09:09:43;;;;;;;2.30;0.55;;;;;;;;;;5043276;28;20107;-63
2022/04/19 09:12:10;;;;;;;2.10;0.52;;;;;;;;;;5078229;28;20040;-64
2022/04/19 09:14:56;;;;;;;1.73;0.50;;;;;;;;;;5065733;28;20398;-63
2022/04/19 09:17:32;;;;;;;1.35;0.70;;;;;;;;;;5041520;28;20408;-63
2022/04/19 09:20:12;;;;;;;2.17;0.60;;;;;;;;;;5073952;28;20046;-63
2022/04/19 09:22:39;;;;;;;1.08;0.60;;;;;;;;;;5047559;28;20037;-63
2022/04/19 09:25:15;;;;;;;1.05;0.60;;;;;;;;;;5066166;28;20051;-63
2022/04/19 09:27:42;;;;;;;1.55;0.95;;;;;;;;;;5031256;28;20056;-62
2022/04/19 09:30:18;;;;;;;2.10;0.73;;;;;;;;;;5063161;28;20056;-62
2022/04/19 09:33:04;;;;;;;1.52;0.70;;;;;;;;;;5039551;28;20099;-63
2022/04/19 09:35:31;;;;;;;4.13;0.98;;;;;;;;;;5048332;28;20090;-62
2022/04/19 09:37:57;;;;;;;2.63;0.80;;;;;;;;;;5034415;28;20061;-61
2022/04/19 09:40:36;;;;;;;2.75;0.90;;;;;;;;;;5041753;28;20057;-61
2022/04/19 09:43:10;;;;;;;1.40;0.93;;;;;;;;;;5031474;28;20491;-62
2022/04/19 09:45:46;;;;;;;1.98;0.90;;;;;;;;;;5071239;28;20056;-62
2022/04/19 09:48:19;;;;;;;1.98;1.10;;;;;;;;;;5072306;28;20042;-61
2022/04/19 09:50:49;;;;;;;3.50;1.20;;;;;;;;;;5031041;28;20053;-62
2022/04/19 09:53:19;;;;;;;2.50;1.10;;;;;;;;;;5031830;28;20037;-61
2022/04/19 09:55:49;;;;;;;2.00;1.20;;;;;;;;;;5072975;28;20046;-62
2022/04/19 09:58:15;;;;;;;3.45;1.55;;;;;;;;;;5034954;28;20041;-61
2022/04/19 10:00:45;;;;;;;3.88;1.80;;;;;;;;;;5072025;28;20048;-61
2022/04/19 10:08:46;;;;;;;2.85;1.60;;;;;;;;;;5045669;28;20037;-61
2022/04/19 10:11:13;;;;;;;3.40;1.80;;;;;;;;;;5064778;28;20041;-62
2022/04/19 10:13:40;;;;;;;2.33;1.50;;;;;;;;;;5048884;28;20052;-62
2022/04/19 10:16:11;;;;;;;4.97;2.22;;;;;;;;;;5042078;28;20111;-61
2022/04/19 10:18:37;;;;;;;2.60;1.88;;;;;;;;;;5016915;28;20479;-62
2022/04/19 10:21:06;;;;;;;2.22;0.95;;;;;;;;;;5062540;28;20049;-62
2022/04/19 10:23:36;;;;;;;2.28;1.05;;;;;;;;;;5078797;28;20553;-61
2022/04/19 10:26:13;;;;;;;2.72;1.30;;;;;;;;;;5033369;28;20037;-62
2022/04/19 10:28:39;;;;;;;1.95;1.08;;;;;;;;;;5046003;28;20041;-63
2022/04/19 10:31:05;;;;;;;2.65;1.33;;;;;;;;;;5042762;28;20368;-61
2022/04/19 10:33:34;;;;;;;3.03;1.40;;;;;;;;;;5040520;28;20038;-61
2022/04/19 10:36:14;;;;;;;2.17;1.10;;;;;;;;;;5030595;28;20041;-61
2022/04/19 10:38:41;;;;;;;2.22;1.17;;;;;;;;;;5035337;28;20479;-61
2022/04/19 10:41:07;;;;;;;2.15;1.40;;;;;;;;;;5041992;28;20037;-61
2022/04/19 10:43:33;;;;;;;5.05;1.38;;;;;;;;;;5033416;28;20356;-62
2022/04/19 10:46:35;;;;;;;2.30;1.42;;;;;;;;;;5036808;28;20586;-61
2022/04/19 10:49:19;;;;;;;2.25;1.38;;;;;;;;;;5004439;28;20080;-62
2022/04/19 10:51:45;;;;;;;2.92;1.58;;;;;;;;;;5040122;28;20073;-63
2022/04/19 10:54:13;;;;;;;4.05;1.63;;;;;;;;;;5046615;28;20044;-62
2022/04/19 10:56:58;;;;;;;2.83;1.38;;;;;;;;;;5036201;28;20052;-62
2022/04/19 10:59:24;;;;;;;1.98;1.20;;;;;;;;;;5061732;28;20049;-64
2022/04/19 11:01:50;;;;;;;1.65;1.25;;;;;;;;;;5028810;28;20076;-62
2022/04/19 11:04:35;;;;;;;3.83;1.50;;;;;;;;;;5062270;28;20045;-62
2022/04/19 11:07:01;;;;;;;2.38;1.27;;;;;;;;;;5034638;28;20088;-62
2022/04/19 11:09:29;;;;;;;1.83;1.40;;;;;;;;;;5062464;28;20048;-61
2022/04/19 11:12:07;;;;;;;3.28;1.15;;;;;;;;;;5037792;28;20057;-62
2022/04/19 11:14:34;;;;;;;3.08;1.20;;;;;;;;;;5039983;28;20040;-62
2022/04/19 11:17:19;;;;;;;2.97;1.35;;;;;;;;;;5035949;28;20506;-62
2022/04/19 11:19:52;;;;;;;4.43;1.40;;;;;;;;;;5045154;28;20041;-62
2022/04/19 11:22:29;;;;;;;2.45;1.33;;;;;;;;;;5064783;28;20033;-62
2022/04/19 11:25:06;;;;;;;2.75;1.40;;;;;;;;;;5043012;28;20045;-62
2022/04/19 11:27:51;;;;;;;3.25;1.30;;;;;;;;;;5061130;28;20072;-63
2022/04/19 11:30:17;;;;;;;2.72;1.35;;;;;;;;;;5061768;28;20037;-61
2022/04/19 11:32:49;;;;;;;2.85;1.10;;;;;;;;;;5064350;28;20032;-62
2022/04/19 11:35:16;;;;;;;2.60;1.27;;;;;;;;;;5041294;28;20093;-62
2022/04/19 11:37:43;;;;;;;2.40;1.35;;;;;;;;;;5033116;28;20491;-60
2022/04/19 11:48:47;;;;;;;1.92;1.27;;;;;;;;;;5032728;28;20116;-62
2022/04/19 11:51:14;;;;;;;1.42;0.93;;;;;;;;;;5040981;28;20085;-62
2022/04/19 11:53:41;;;;;;;2.22;0.73;;;;;;;;;;5043619;28;20044;-62
2022/04/19 11:56:07;;;;;;;2.58;1.02;;;;;;;;;;5075897;28;20487;-62
2022/04/19 11:58:33;;;;;;;2.00;1.10;;;;;;;;;;5040731;28;20034;-61
2022/04/19 12:01:03;;;;;;;1.63;0.90;;;;;;;;;;5061182;28;20037;-61
2022/04/19 12:03:30;;;;;;;4.07;1.30;;;;;;;;;;5078446;28;20071;-62
2022/04/19 12:06:04;;;;;;;3.33;1.48;;;;;;;;;;5033625;28;20043;-62
2022/04/19 12:08:34;;;;;;;2.50;1.10;;;;;;;;;;5026821;28;20064;-63
2022/04/19 12:11:03;;;;;;;2.03;1.08;;;;;;;;;;5041662;28;20049;-62
2022/04/19 12:13:29;;;;;;;2.53;1.38;;;;;;;;;;5039948;28;20126;-62
2022/04/19 12:15:55;;;;;;;2.22;0.95;;;;;;;;;;5002740;28;20133;-62
2022/04/19 12:18:32;;;;;;;2.00;1.20;;;;;;;;;;5059722;28;20049;-63
2022/04/19 12:20:58;;;;;;;2.97;1.30;;;;;;;;;;5059886;28;20041;-63
2022/04/19 12:23:24;;;;;;;1.85;1.35;;;;;;;;;;5069705;28;20376;-62
2022/04/19 12:25:59;;;;;;;2.70;1.70;;;;;;;;;;5060675;28;20548;-62
2022/04/19 12:28:36;;;;;;;2.13;1.50;;;;;;;;;;5039874;28;20048;-63
2022/04/19 12:31:02;;;;;;;4.85;1.58;;;;;;;;;;5045733;28;20037;-63
2022/04/19 12:33:28;;;;;;;2.72;1.60;;;;;;;;;;5039717;28;20633;-62
2022/04/19 12:35:54;;;;;;;3.58;1.58;;;;;;;;;;5029527;28;20702;-62
2022/04/19 12:38:28;;;;;;;2.60;1.50;;;;;;;;;;5041604;28;20126;-63
2022/04/19 12:40:54;;;;;;;5.30;1.58;;;;;;;;;;5031364;28;20526;-63
2022/04/19 12:43:20;;;;;;;1.95;1.33;;;;;;;;;;5071208;28;20045;-63
2022/04/19 12:45:48;;;;;;;2.47;1.55;;;;;;;;;;5059597;28;20116;-64
2022/04/19 12:48:18;;;;;;;4.40;1.50;;;;;;;;;;5073801;28;20038;-63
2022/04/19 12:50:45;;;;;;;3.38;1.58;;;;;;;;;;5043946;28;20069;-62
2022/04/19 12:53:21;;;;;;;2.55;1.63;;;;;;;;;;5039244;28;20041;-62
2022/04/19 12:55:47;;;;;;;4.88;2.08;;;;;;;;;;5027404;28;20038;-63
2022/04/19 12:58:14;;;;;;;4.22;1.75;;;;;;;;;;5061318;28;20041;-63
2022/04/19 13:00:40;;;;;;;2.75;1.85;;;;;;;;;;5043891;28;20041;-63
2022/04/19 13:03:06;;;;;;;2.92;1.83;;;;;;;;;;5060089;28;20041;-63
2022/04/19 13:13:46;;;;;;;2.90;2.00;;;;;;;;;;5038170;28;20087;-61
2022/04/19 13:16:12;;;;;;;3.50;2.67;;;;;;;;;;5038645;28;20048;-61
2022/04/19 13:18:40;;;;;;;2.60;1.52;;;;;;;;;;5040132;28;20045;-63
2022/04/19 13:21:06;;;;;;;3.03;1.38;;;;;;;;;;5036516;28;20040;-62
2022/04/19 13:23:33;;;;;;;1.85;1.20;;;;;;;;;;5031759;28;20099;-61
2022/04/19 13:25:59;;;;;;;3.33;1.40;;;;;;;;;;5079846;28;20045;-61
2022/04/19 13:28:26;;;;;;;4.45;1.45;;;;;;;;;;5063751;28;20056;-62
2022/04/19 13:30:53;;;;;;;1.95;1.67;;;;;;;;;;5046867;28;20041;-62
2022/04/19 13:33:19;;;;;;;2.90;1.55;;;;;;;;;;5031635;28;20124;-62
2022/04/19 13:35:45;;;;;;;3.75;1.42;;;;;;;;;;5065639;28;20570;-61
2022/04/19 13:38:23;;;;;;;3.15;1.70;;;;;;;;;;5044947;28;20057;-61
2022/04/19 13:40:49;;;;;;;5.72;2.25;;;;;;;;;;5063646;28;20060;-61
2022/04/19 13:43:15;;;;;;;3.35;2.10;;;;;;;;;;5063794;28;20041;-61
2022/04/19 13:45:42;;;;;;;2.92;1.60;;;;;;;;;;5066309;28;20052;-61
2022/04/19 13:48:08;;;;;;;2.17;1.20;;;;;;;;;;5048542;28;20560;-62
2022/04/19 13:50:35;;;;;;;2.75;1.45;;;;;;;;;;5038139;28;20095;-62
2022/04/19 13:53:05;;;;;;;2.47;1.33;;;;;;;;;;5041006;28;20451;-61
2022/04/19 13:55:31;;;;;;;1.88;1.10;;;;;;;;;;5061032;28;20041;-61
2022/04/19 13:57:57;;;;;;;3.85;1.50;;;;;;;;;;5062694;28;20044;-61
2022/04/19 14:00:24;;;;;;;2.35;1.20;;;;;;;;;;5070477;28;20119;-63
2022/04/19 14:02:50;;;;;;;2.38;1.10;;;;;;;;;;5042648;28;20568;-61
2022/04/19 14:05:19;;;;;;;2.83;1.63;;;;;;;;;;5035102;28;20056;-63
2022/04/19 14:07:45;;;;;;;4.05;1.88;;;;;;;;;;5033560;28;20037;-63
2022/04/19 14:10:11;;;;;;;2.83;1.70;;;;;;;;;;5046181;28;20036;-63
2022/04/19 14:12:38;;;;;;;2.28;1.17;;;;;;;;;;5035101;28;20033;-62
2022/04/19 14:15:05;;;;;;;2.60;1.75;;;;;;;;;;5041767;28;20042;-62
2022/04/19 14:17:31;;;;;;;4.45;2.22;;;;;;;;;;5043675;28;20127;-63
2022/04/19 14:19:57;;;;;;;3.47;1.77;;;;;;;;;;5075391;28;20056;-61
2022/04/19 14:22:24;;;;;;;3.17;1.75;;;;;;;;;;5075339;28;20041;-61
2022/04/19 14:24:51;;;;;;;2.63;1.23;;;;;;;;;;5027074;28;20521;-61
2022/04/19 14:27:17;;;;;;;1.77;1.40;;;;;;;;;;5061575;28;20041;-62
2022/04/19 14:35:14;;;;;;;5.50;3.20;;;;;;;;;;5037798;28;20485;-63
2022/04/19 14:37:40;;;;;;;6.43;4.18;;;;;;;;;;5020246;28;20050;-62
2022/04/19 14:40:06;;;;;;;5.60;4.25;;;;;;;;;;5031445;28;20033;-63
2022/04/19 14:42:32;;;;;;;8.05;4.22;;;;;;;;;;5045386;28;20512;-60
2022/04/19 14:44:58;;;;;;;5.22;3.95;;;;;;;;;;5036726;28;20033;-62
2022/04/19 14:47:24;;;;;;;5.53;4.25;;;;;;;;;;5063421;28;20037;-61
2022/04/19 14:49:50;;;;;;;4.93;4.10;;;;;;;;;;5042133;28;20033;-61
2022/04/19 14:52:18;;;;;;;6.93;4.18;;;;;;;;;;5038154;28;20038;-61
2022/04/19 14:54:48;;;;;;;6.60;5.03;;;;;;;;;;5030170;28;20050;-62
2022/04/19 14:57:14;;;;;;;5.07;3.70;;;;;;;;;;5029896;28;20077;-62
2022/04/19 14:59:42;;;;;;;4.03;3.63;;;;;;;;;;5063180;28;20045;-62
2022/04/19 15:02:08;;;;;;;6.57;4.63;;;;;;;;;;5032213;28;20055;-62
2022/04/19 15:04:35;;;;;;;4.35;3.65;;;;;;;;;;5065350;28;20040;-62
2022/04/19 15:07:01;;;;;;;6.85;4.90;;;;;;;;;;5019381;28;20045;-63
2022/04/19 15:09:27;;;;;;;6.82;4.85;;;;;;;;;;5064345;28;20043;-62
2022/04/19 15:11:54;;;;;;;6.80;4.68;;;;;;;;;;5068818;28;20522;-61
2022/04/19 15:14:21;;;;;;;4.70;3.65;;;;;;;;;;5061405;28;20045;-61
2022/04/19 15:16:50;;;;;;;6.32;4.30;;;;;;;;;;5036325;28;20516;-63
2022/04/19 15:19:17;;;;;;;6.75;4.40;;;;;;;;;;5060944;28;20072;-62
2022/04/19 15:21:43;;;;;;;6.72;4.32;;;;;;;;;;5039114;28;20538;-62
2022/04/19 15:24:10;;;;;;;5.78;4.78;;;;;;;;;;5039237;28;20048;-64
2022/04/19 15:26:36;;;;;;;6.13;4.30;;;;;;;;;;5035672;28;20036;-61
2022/04/19 15:29:02;;;;;;;5.72;4.40;;;;;;;;;;5071422;28;20044;-61
2022/04/19 15:31:28;;;;;;;6.60;4.70;;;;;;;;;;5039206;28;20039;-61